Cosco Melbourne — V7IF5 — position and weather

sailwx.info

Track history (hours):
 
Tides and Currents Weather Stations Pressure Air Temp Water Temp Dewpoint Dewpoint Depression Visibility Wind Speed Wind Dir Waves Ship Positions

Cosco Melbourne

Last reported at 2015-Aug-23 22:16 UTC. Time now 2015-Aug-31 15:24 UTC.
Position N 29°32' E 122°20'.

Type: Ship (hazmat cat A). MMSI: 538002366.

Date/timePositionNaut miles runAvg speedWind from/ knotsBaromVisibWave heightAir tempDewpointWater temp
2015-Aug-23 22:16N 29°32' E 122°20'1513.0
2015-Aug-23 21:07N 29°47' E 122°16'2211.2
2015-Aug-23 19:08N 29°57' E 121°53'1 1.7
2015-Aug-23 18:31N 29°56' E 121°52'0 0.0
2015-Aug-23 17:33N 29°56' E 121°52'0 0.0
2015-Aug-23 16:29N 29°56' E 121°52'0 0.0
2015-Aug-23 15:33N 29°56' E 121°52'0 0.0
2015-Aug-23 14:33N 29°56' E 121°52'0 0.0
2015-Aug-23 13:26N 29°56' E 121°52'0 0.0
2015-Aug-23 12:28N 29°56' E 121°52'75 6.3
2015-Aug-23 00:33N 31°05' E 122°25'1514.7
2015-Aug-22 23:33N 31°12' E 122°09'1313.1
2015-Aug-22 22:33N 31°16' E 121°55'1313.3
2015-Aug-22 21:33N 31°20' E 121°40'1 1.0
2015-Aug-22 20:33N 31°20' E 121°39'0 0.1
2015-Aug-22 19:33N 31°20' E 121°39'0 0.1
2015-Aug-22 18:33N 31°20' E 121°39'0 0.0
2015-Aug-22 17:33N 31°20' E 121°39'0 0.0
2015-Aug-22 16:33N 31°20' E 121°39'0 0.0
2015-Aug-22 15:33N 31°20' E 121°39'0 0.0
2015-Aug-22 14:33N 31°20' E 121°39'0 0.0
2015-Aug-22 13:33N 31°20' E 121°39'0 0.0
2015-Aug-22 12:33N 31°20' E 121°39'0 0.0
2015-Aug-22 11:33N 31°20' E 121°39'0 0.0
2015-Aug-22 10:33N 31°20' E 121°39'0 0.0
2015-Aug-22 09:33N 31°20' E 121°39'0 0.4
2015-Aug-22 08:33N 31°21' E 121°39'6 5.9
2015-Aug-22 07:33N 31°19' E 121°45'1111.2
2015-Aug-22 06:33N 31°15' E 121°58'1111.3
2015-Aug-22 05:33N 31°11' E 122°10'10 9.9
2015-Aug-22 04:33N 31°06' E 122°20'16 5.3
2015-Aug-22 01:33N 31°08' E 122°39'0 0.0
2015-Aug-21 22:29N 31°08' E 122°39'38 6.0
2015-Aug-21 16:09N 30°35' E 123°00'  
Track history (hours):
 
Tides and Currents Weather Stations Pressure Air Temp Water Temp Dewpoint Dewpoint Depression Visibility Wind Speed Wind Dir Waves Ship Positions

Cosco Melbourne

Last reported at 2015-Aug-23 22:16 UTC. Time now 2015-Aug-31 15:24 UTC.
Position N 29°32' E 122°20'.

Type: Ship (hazmat cat A). MMSI: 538002366.

Date/timePositionNaut miles runAvg speedWind from/ knotsBaromVisibWave heightAir tempDewpointWater temp
2015-Aug-23 22:16N 29°32' E 122°20'1513.0
2015-Aug-23 21:07N 29°47' E 122°16'2211.2
2015-Aug-23 19:08N 29°57' E 121°53'1 1.7
2015-Aug-23 18:31N 29°56' E 121°52'0 0.0
2015-Aug-23 17:33N 29°56' E 121°52'0 0.0
2015-Aug-23 16:29N 29°56' E 121°52'0 0.0
2015-Aug-23 15:33N 29°56' E 121°52'0 0.0
2015-Aug-23 14:33N 29°56' E 121°52'0 0.0
2015-Aug-23 13:26N 29°56' E 121°52'0 0.0
2015-Aug-23 12:28N 29°56' E 121°52'75 6.3
2015-Aug-23 00:33N 31°05' E 122°25'1514.7
2015-Aug-22 23:33N 31°12' E 122°09'1313.1
2015-Aug-22 22:33N 31°16' E 121°55'1313.3
2015-Aug-22 21:33N 31°20' E 121°40'1 1.0
2015-Aug-22 20:33N 31°20' E 121°39'0 0.1
2015-Aug-22 19:33N 31°20' E 121°39'0 0.1
2015-Aug-22 18:33N 31°20' E 121°39'0 0.0
2015-Aug-22 17:33N 31°20' E 121°39'0 0.0
2015-Aug-22 16:33N 31°20' E 121°39'0 0.0
2015-Aug-22 15:33N 31°20' E 121°39'0 0.0
2015-Aug-22 14:33N 31°20' E 121°39'0 0.0
2015-Aug-22 13:33N 31°20' E 121°39'0 0.0
2015-Aug-22 12:33N 31°20' E 121°39'0 0.0
2015-Aug-22 11:33N 31°20' E 121°39'0 0.0
2015-Aug-22 10:33N 31°20' E 121°39'0 0.0
2015-Aug-22 09:33N 31°20' E 121°39'0 0.4
2015-Aug-22 08:33N 31°21' E 121°39'6 5.9
2015-Aug-22 07:33N 31°19' E 121°45'1111.2
2015-Aug-22 06:33N 31°15' E 121°58'1111.3
2015-Aug-22 05:33N 31°11' E 122°10'10 9.9
2015-Aug-22 04:33N 31°06' E 122°20'16 5.3
2015-Aug-22 01:33N 31°08' E 122°39'0 0.0
2015-Aug-21 22:29N 31°08' E 122°39'38 6.0
2015-Aug-21 16:09N 30°35' E 123°00'  

Dump ship's entire track history